sensor_id;sensor_type;location;lat;lon;timestamp;pressure;altitude;pressure_sealevel;temperature;humidity
72395;BME280;60384;48.152;11.614;2023-03-14T00:02:00;94209.41;;;13.00;52.76
72395;BME280;60384;48.152;11.614;2023-03-14T00:05:03;94195.63;;;12.98;52.71
72395;BME280;60384;48.152;11.614;2023-03-14T00:08:07;94195.22;;;12.96;52.80
72395;BME280;60384;48.152;11.614;2023-03-14T00:11:11;94166.84;;;12.95;52.92
72395;BME280;60384;48.152;11.614;2023-03-14T00:14:13;94159.19;;;12.93;52.97
72395;BME280;60384;48.152;11.614;2023-03-14T00:17:17;94179.88;;;12.93;52.60
72395;BME280;60384;48.152;11.614;2023-03-14T00:20:20;94197.44;;;12.90;52.74
72395;BME280;60384;48.152;11.614;2023-03-14T00:23:22;94195.91;;;12.89;52.35
72395;BME280;60384;48.152;11.614;2023-03-14T00:26:24;94198.56;;;12.89;52.53
72395;BME280;60384;48.152;11.614;2023-03-14T00:29:26;94193.56;;;12.88;52.63
72395;BME280;60384;48.152;11.614;2023-03-14T00:32:28;94180.56;;;12.86;52.61
72395;BME280;60384;48.152;11.614;2023-03-14T00:35:31;94174.06;;;12.87;52.89
72395;BME280;60384;48.152;11.614;2023-03-14T00:38:33;94189.75;;;12.85;52.90
72395;BME280;60384;48.152;11.614;2023-03-14T00:41:35;94181.69;;;12.85;53.02
72395;BME280;60384;48.152;11.614;2023-03-14T00:44:37;94172.09;;;12.84;52.66
72395;BME280;60384;48.152;11.614;2023-03-14T00:47:41;94178.66;;;12.87;52.60
72395;BME280;60384;48.152;11.614;2023-03-14T00:50:47;94192.06;;;12.87;52.59
72395;BME280;60384;48.152;11.614;2023-03-14T00:53:49;94188.59;;;12.86;52.94
72395;BME280;60384;48.152;11.614;2023-03-14T00:56:51;94185.16;;;12.86;52.56
72395;BME280;60384;48.152;11.614;2023-03-14T00:59:53;94184.31;;;12.81;52.68
72395;BME280;60384;48.152;11.614;2023-03-14T01:02:55;94200.00;;;12.79;53.02
72395;BME280;60384;48.152;11.614;2023-03-14T01:06:08;94205.31;;;12.76;53.07
72395;BME280;60384;48.152;11.614;2023-03-14T01:09:10;94216.78;;;12.73;52.79
72395;BME280;60384;48.152;11.614;2023-03-14T01:12:12;94222.47;;;12.68;52.80
72395;BME280;60384;48.152;11.614;2023-03-14T01:15:16;94232.38;;;12.64;52.98
72395;BME280;60384;48.152;11.614;2023-03-14T01:18:18;94239.19;;;12.58;53.49
72395;BME280;60384;48.152;11.614;2023-03-14T01:21:24;94240.66;;;12.55;53.37
72395;BME280;60384;48.152;11.614;2023-03-14T01:24:26;94237.53;;;12.50;53.43
72395;BME280;60384;48.152;11.614;2023-03-14T01:27:28;94239.41;;;12.46;53.34
72395;BME280;60384;48.152;11.614;2023-03-14T01:30:30;94238.88;;;12.36;53.14
72395;BME280;60384;48.152;11.614;2023-03-14T01:33:32;94240.31;;;12.30;53.28
72395;BME280;60384;48.152;11.614;2023-03-14T01:36:35;94244.84;;;12.23;53.56
72395;BME280;60384;48.152;11.614;2023-03-14T01:39:39;94240.50;;;12.15;53.44
72395;BME280;60384;48.152;11.614;2023-03-14T01:42:45;94245.75;;;12.08;53.90
72395;BME280;60384;48.152;11.614;2023-03-14T01:49:33;94242.53;;;11.95;53.15
72395;BME280;60384;48.152;11.614;2023-03-14T01:52:45;94239.31;;;11.86;53.47
72395;BME280;60384;48.152;11.614;2023-03-14T01:55:48;94254.00;;;11.73;53.98
72395;BME280;60384;48.152;11.614;2023-03-14T01:58:50;94254.94;;;11.61;53.98
72395;BME280;60384;48.152;11.614;2023-03-14T02:01:53;94253.63;;;11.51;54.71
72395;BME280;60384;48.152;11.614;2023-03-14T02:04:56;94256.25;;;11.48;54.18
72395;BME280;60384;48.152;11.614;2023-03-14T02:08:10;94259.91;;;11.40;53.81
72395;BME280;60384;48.152;11.614;2023-03-14T02:11:26;94255.97;;;11.34;54.74
72395;BME280;60384;48.152;11.614;2023-03-14T02:14:37;94254.75;;;11.28;55.11
72395;BME280;60384;48.152;11.614;2023-03-14T02:18:12;94243.16;;;11.20;54.46
72395;BME280;60384;48.152;11.614;2023-03-14T02:21:29;94247.25;;;11.14;54.32
72395;BME280;60384;48.152;11.614;2023-03-14T02:24:44;94234.53;;;11.07;55.11
72395;BME280;60384;48.152;11.614;2023-03-14T02:27:49;94222.53;;;10.98;54.96
72395;BME280;60384;48.152;11.614;2023-03-14T02:30:52;94207.56;;;10.93;55.19
72395;BME280;60384;48.152;11.614;2023-03-14T02:33:55;94198.69;;;10.89;54.94
72395;BME280;60384;48.152;11.614;2023-03-14T02:36:58;94174.59;;;10.86;55.37
72395;BME280;60384;48.152;11.614;2023-03-14T02:40:01;94166.88;;;10.81;55.22
72395;BME280;60384;48.152;11.614;2023-03-14T02:43:07;94146.19;;;10.77;55.14
72395;BME280;60384;48.152;11.614;2023-03-14T02:46:12;94130.56;;;10.76;55.02
72395;BME280;60384;48.152;11.614;2023-03-14T02:49:14;94099.97;;;10.73;55.69
72395;BME280;60384;48.152;11.614;2023-03-14T02:52:16;94072.78;;;10.68;55.00
72395;BME280;60384;48.152;11.614;2023-03-14T02:55:20;94076.19;;;10.65;55.63
72395;BME280;60384;48.152;11.614;2023-03-14T02:58:24;94069.63;;;10.62;54.78
72395;BME280;60384;48.152;11.614;2023-03-14T03:01:33;94065.78;;;10.60;55.79
72395;BME280;60384;48.152;11.614;2023-03-14T03:04:35;94061.94;;;10.57;55.61
72395;BME280;60384;48.152;11.614;2023-03-14T03:07:37;94078.28;;;10.56;55.69
72395;BME280;60384;48.152;11.614;2023-03-14T03:10:39;94064.13;;;10.52;55.86
72395;BME280;60384;48.152;11.614;2023-03-14T03:13:43;94087.72;;;10.50;55.63
72395;BME280;60384;48.152;11.614;2023-03-14T03:16:46;94114.75;;;10.48;55.85
72395;BME280;60384;48.152;11.614;2023-03-14T03:19:48;94095.31;;;10.48;55.61
72395;BME280;60384;48.152;11.614;2023-03-14T03:22:51;94103.34;;;10.48;55.68
72395;BME280;60384;48.152;11.614;2023-03-14T03:25:53;94098.34;;;10.46;56.17
72395;BME280;60384;48.152;11.614;2023-03-14T03:28:56;94095.66;;;10.46;55.42
72395;BME280;60384;48.152;11.614;2023-03-14T03:31:58;94095.25;;;10.44;55.84
72395;BME280;60384;48.152;11.614;2023-03-14T03:35:01;94091.03;;;10.43;55.71
72395;BME280;60384;48.152;11.614;2023-03-14T03:38:04;94092.19;;;10.42;56.31
72395;BME280;60384;48.152;11.614;2023-03-14T03:41:07;94084.50;;;10.41;55.96
72395;BME280;60384;48.152;11.614;2023-03-14T03:44:11;94070.41;;;10.40;55.82
72395;BME280;60384;48.152;11.614;2023-03-14T03:47:14;94067.28;;;10.38;56.45
72395;BME280;60384;48.152;11.614;2023-03-14T03:50:16;94082.13;;;10.35;55.60
72395;BME280;60384;48.152;11.614;2023-03-14T03:53:18;94082.06;;;10.32;56.29
72395;BME280;60384;48.152;11.614;2023-03-14T03:56:20;94076.66;;;10.28;56.61
72395;BME280;60384;48.152;11.614;2023-03-14T03:59:23;94085.34;;;10.25;56.37
72395;BME280;60384;48.152;11.614;2023-03-14T04:02:25;94065.50;;;10.23;56.66
72395;BME280;60384;48.152;11.614;2023-03-14T04:05:27;94069.28;;;10.22;56.21
72395;BME280;60384;48.152;11.614;2023-03-14T04:08:42;94071.19;;;10.21;56.44
72395;BME280;60384;48.152;11.614;2023-03-14T04:11:54;94063.91;;;10.18;55.97
72395;BME280;60384;48.152;11.614;2023-03-14T04:14:57;94071.47;;;10.16;56.32
72395;BME280;60384;48.152;11.614;2023-03-14T04:17:59;94082.47;;;10.15;56.24
72395;BME280;60384;48.152;11.614;2023-03-14T04:21:01;94071.72;;;10.11;56.38
72395;BME280;60384;48.152;11.614;2023-03-14T04:24:14;94068.22;;;10.07;56.32
72395;BME280;60384;48.152;11.614;2023-03-14T04:27:19;94065.91;;;10.06;56.68
72395;BME280;60384;48.152;11.614;2023-03-14T04:30:23;94050.25;;;10.04;56.73
72395;BME280;60384;48.152;11.614;2023-03-14T04:33:28;94041.84;;;10.02;56.97
72395;BME280;60384;48.152;11.614;2023-03-14T04:36:31;94042.19;;;10.01;56.37
72395;BME280;60384;48.152;11.614;2023-03-14T04:39:37;94038.75;;;10.00;56.72
72395;BME280;60384;48.152;11.614;2023-03-14T04:42:47;94026.88;;;9.98;56.98
72395;BME280;60384;48.152;11.614;2023-03-14T04:45:50;94034.47;;;9.95;56.49
72395;BME280;60384;48.152;11.614;2023-03-14T04:48:53;94032.50;;;9.92;56.57
72395;BME280;60384;48.152;11.614;2023-03-14T04:51:56;94034.38;;;9.92;57.00
72395;BME280;60384;48.152;11.614;2023-03-14T04:55:00;94027.88;;;9.89;57.06
72395;BME280;60384;48.152;11.614;2023-03-14T04:58:03;94022.53;;;9.89;57.24
72395;BME280;60384;48.152;11.614;2023-03-14T05:01:06;94013.75;;;9.89;56.77
72395;BME280;60384;48.152;11.614;2023-03-14T05:04:11;94006.09;;;9.87;57.06
72395;BME280;60384;48.152;11.614;2023-03-14T05:07:45;94006.09;;;9.87;56.55
72395;BME280;60384;48.152;11.614;2023-03-14T05:11:02;94002.66;;;9.87;56.75
72395;BME280;60384;48.152;11.614;2023-03-14T05:14:21;94005.69;;;9.85;57.07
72395;BME280;60384;48.152;11.614;2023-03-14T05:17:43;94003.72;;;9.82;57.03
72395;BME280;60384;48.152;11.614;2023-03-14T05:20:46;94001.06;;;9.82;56.97
72395;BME280;60384;48.152;11.614;2023-03-14T05:24:00;94000.28;;;9.82;56.89
72395;BME280;60384;48.152;11.614;2023-03-14T05:27:20;93999.50;;;9.81;57.10
72395;BME280;60384;48.152;11.614;2023-03-14T05:30:48;94009.84;;;9.83;57.17
72395;BME280;60384;48.152;11.614;2023-03-14T05:34:09;94011.72;;;9.82;56.85
72395;BME280;60384;48.152;11.614;2023-03-14T05:37:47;94011.72;;;9.82;56.77
72395;BME280;60384;48.152;11.614;2023-03-14T05:41:07;94010.94;;;9.82;57.05
72395;BME280;60384;48.152;11.614;2023-03-14T05:44:25;94006.34;;;9.79;56.88
72395;BME280;60384;48.152;11.614;2023-03-14T05:47:41;94010.91;;;9.78;56.89
72395;BME280;60384;48.152;11.614;2023-03-14T05:51:08;94004.78;;;9.78;56.74
72395;BME280;60384;48.152;11.614;2023-03-14T05:54:42;93998.75;;;9.81;57.16
72395;BME280;60384;48.152;11.614;2023-03-14T05:58:02;93995.28;;;9.80;56.55
72395;BME280;60384;48.152;11.614;2023-03-14T06:01:33;93994.94;;;9.82;57.29
72395;BME280;60384;48.152;11.614;2023-03-14T06:04:44;93989.69;;;9.85;56.60
72395;BME280;60384;48.152;11.614;2023-03-14T06:07:47;93989.69;;;9.85;56.83
72395;BME280;60384;48.152;11.614;2023-03-14T06:10:50;93984.78;;;9.87;57.04
72395;BME280;60384;48.152;11.614;2023-03-14T06:13:53;93984.78;;;9.87;56.37
72395;BME280;60384;48.152;11.614;2023-03-14T06:16:55;93979.44;;;9.87;56.44
72395;BME280;60384;48.152;11.614;2023-03-14T06:20:00;93982.53;;;9.89;57.09
72395;BME280;60384;48.152;11.614;2023-03-14T06:23:06;93984.09;;;9.90;56.64
72395;BME280;60384;48.152;11.614;2023-03-14T06:26:08;93975.72;;;9.92;56.67
72395;BME280;60384;48.152;11.614;2023-03-14T06:29:13;93973.03;;;9.92;57.16
72395;BME280;60384;48.152;11.614;2023-03-14T06:32:15;93972.69;;;9.93;57.10
72395;BME280;60384;48.152;11.614;2023-03-14T06:35:19;93964.41;;;9.99;56.86
72395;BME280;60384;48.152;11.614;2023-03-14T06:38:23;93956.09;;;10.04;57.03
72395;BME280;60384;48.152;11.614;2023-03-14T06:41:28;93943.66;;;10.11;57.13
72395;BME280;60384;48.152;11.614;2023-03-14T06:44:32;93944.66;;;10.22;56.32
72395;BME280;60384;48.152;11.614;2023-03-14T06:47:34;93945.53;;;10.30;56.53
72395;BME280;60384;48.152;11.614;2023-03-14T06:50:36;93943.75;;;10.38;56.62
72395;BME280;60384;48.152;11.614;2023-03-14T06:53:40;93945.06;;;10.47;56.04
72395;BME280;60384;48.152;11.614;2023-03-14T06:56:42;93961.13;;;10.51;56.21
72395;BME280;60384;48.152;11.614;2023-03-14T06:59:45;93968.78;;;10.52;56.01
72395;BME280;60384;48.152;11.614;2023-03-14T07:02:47;93973.41;;;10.55;56.34
72395;BME280;60384;48.152;11.614;2023-03-14T07:06:12;93977.59;;;10.56;56.37
72395;BME280;60384;48.152;11.614;2023-03-14T07:09:15;93984.84;;;10.56;56.12
72395;BME280;60384;48.152;11.614;2023-03-14T07:12:23;93984.50;;;10.57;56.24
72395;BME280;60384;48.152;11.614;2023-03-14T07:15:25;93984.16;;;10.59;56.66
72395;BME280;60384;48.152;11.614;2023-03-14T07:18:35;93982.25;;;10.59;56.80
72395;BME280;60384;48.152;11.614;2023-03-14T07:21:39;93987.22;;;10.61;56.79
72395;BME280;60384;48.152;11.614;2023-03-14T07:24:46;93986.09;;;10.62;55.78
72395;BME280;60384;48.152;11.614;2023-03-14T07:27:48;93977.31;;;10.61;56.33
72395;BME280;60384;48.152;11.614;2023-03-14T07:30:50;93983.41;;;10.62;56.33
72395;BME280;60384;48.152;11.614;2023-03-14T07:33:57;93984.97;;;10.63;56.04
72395;BME280;60384;48.152;11.614;2023-03-14T07:37:03;93986.13;;;10.65;56.97
72395;BME280;60384;48.152;11.614;2023-03-14T07:40:08;93978.97;;;10.69;56.32
72395;BME280;60384;48.152;11.614;2023-03-14T07:43:13;93971.44;;;10.75;56.72
72395;BME280;60384;48.152;11.614;2023-03-14T07:46:20;93968.78;;;10.78;56.30
72395;BME280;60384;48.152;11.614;2023-03-14T07:49:22;93965.81;;;10.84;56.67
72395;BME280;60384;48.152;11.614;2023-03-14T07:52:24;93957.13;;;10.90;55.68
72395;BME280;60384;48.152;11.614;2023-03-14T07:55:27;93953.38;;;10.95;56.30
72395;BME280;60384;48.152;11.614;2023-03-14T07:58:29;93950.41;;;11.00;55.77
72395;BME280;60384;48.152;11.614;2023-03-14T08:01:31;93947.03;;;11.03;55.59
72395;BME280;60384;48.152;11.614;2023-03-14T08:04:33;93958.28;;;11.15;55.59
72395;BME280;60384;48.152;11.614;2023-03-14T08:07:35;93968.25;;;11.22;56.40
72395;BME280;60384;48.152;11.614;2023-03-14T08:10:38;93965.28;;;11.27;55.78
72395;BME280;60384;48.152;11.614;2023-03-14T08:13:40;93960.75;;;11.31;55.94
72395;BME280;60384;48.152;11.614;2023-03-14T08:16:41;93960.03;;;11.34;55.71
72395;BME280;60384;48.152;11.614;2023-03-14T08:19:43;93964.31;;;11.39;56.71
72395;BME280;60384;48.152;11.614;2023-03-14T08:22:45;93960.53;;;11.43;55.54
72395;BME280;60384;48.152;11.614;2023-03-14T08:25:49;93971.25;;;11.47;55.45
72395;BME280;60384;48.152;11.614;2023-03-14T08:28:51;93974.00;;;11.50;55.48
72395;BME280;60384;48.152;11.614;2023-03-14T08:31:53;93969.47;;;11.54;55.48
72395;BME280;60384;48.152;11.614;2023-03-14T08:34:55;93976.34;;;11.55;55.70
72395;BME280;60384;48.152;11.614;2023-03-14T08:37:57;93979.81;;;11.56;55.22
72395;BME280;60384;48.152;11.614;2023-03-14T08:41:02;93983.28;;;11.60;56.05
72395;BME280;60384;48.152;11.614;2023-03-14T08:44:04;93990.16;;;11.61;55.81
72395;BME280;60384;48.152;11.614;2023-03-14T08:47:06;93989.44;;;11.64;55.71
72395;BME280;60384;48.152;11.614;2023-03-14T08:50:09;93990.56;;;11.63;56.43
72395;BME280;60384;48.152;11.614;2023-03-14T08:53:11;93992.88;;;11.65;55.66
72395;BME280;60384;48.152;11.614;2023-03-14T08:56:14;93998.69;;;11.70;55.36
72395;BME280;60384;48.152;11.614;2023-03-14T08:59:17;94000.16;;;11.68;56.02
72395;BME280;60384;48.152;11.614;2023-03-14T09:02:19;94002.84;;;11.68;55.59
72395;BME280;60384;48.152;11.614;2023-03-14T09:05:21;93997.13;;;11.69;56.42
72395;BME280;60384;48.152;11.614;2023-03-14T09:08:22;94011.41;;;11.77;55.85
72395;BME280;60384;48.152;11.614;2023-03-14T09:11:26;94011.44;;;11.80;55.98
72395;BME280;60384;48.152;11.614;2023-03-14T09:14:27;94013.44;;;11.87;55.24
72395;BME280;60384;48.152;11.614;2023-03-14T09:17:29;94017.72;;;11.95;55.17
72395;BME280;60384;48.152;11.614;2023-03-14T09:20:31;94013.97;;;11.99;56.31
72395;BME280;60384;48.152;11.614;2023-03-14T09:23:33;94010.16;;;12.00;55.55
72395;BME280;60384;48.152;11.614;2023-03-14T09:26:36;94003.25;;;11.99;55.18
72395;BME280;60384;48.152;11.614;2023-03-14T09:29:38;94006.69;;;12.00;55.30
72395;BME280;60384;48.152;11.614;2023-03-14T09:32:40;94002.81;;;11.94;55.45
72395;BME280;60384;48.152;11.614;2023-03-14T09:35:42;94008.88;;;11.91;55.47
72395;BME280;60384;48.152;11.614;2023-03-14T09:38:44;93995.88;;;11.89;56.48
72395;BME280;60384;48.152;11.614;2023-03-14T09:41:48;93996.28;;;11.91;56.14
72395;BME280;60384;48.152;11.614;2023-03-14T09:44:55;93990.19;;;11.94;56.43
72395;BME280;60384;48.152;11.614;2023-03-14T09:47:58;93985.97;;;11.93;55.62
72395;BME280;60384;48.152;11.614;2023-03-14T09:51:05;93994.81;;;11.97;56.24
72395;BME280;60384;48.152;11.614;2023-03-14T09:54:17;93984.16;;;12.01;55.75
72395;BME280;60384;48.152;11.614;2023-03-14T09:57:23;93978.41;;;12.02;55.21
72395;BME280;60384;48.152;11.614;2023-03-14T10:00:28;93983.41;;;12.04;55.31
72395;BME280;60384;48.152;11.614;2023-03-14T10:03:32;93975.81;;;12.10;55.75
72395;BME280;60384;48.152;11.614;2023-03-14T10:06:34;93973.59;;;12.15;55.64
72395;BME280;60384;48.152;11.614;2023-03-14T10:09:36;93971.72;;;12.19;55.91
72395;BME280;60384;48.152;11.614;2023-03-14T10:12:39;93976.34;;;12.22;55.59
72395;BME280;60384;48.152;11.614;2023-03-14T10:15:47;93965.31;;;12.31;55.08
72395;BME280;60384;48.152;11.614;2023-03-14T10:18:50;93971.16;;;12.40;54.97
72395;BME280;60384;48.152;11.614;2023-03-14T10:21:53;93961.66;;;12.50;55.43
72395;BME280;60384;48.152;11.614;2023-03-14T10:24:57;93959.19;;;12.74;55.16
72395;BME280;60384;48.152;11.614;2023-03-14T10:28:04;93955.31;;;14.17;52.55
72395;BME280;60384;48.152;11.614;2023-03-14T10:31:07;93935.84;;;18.91;43.44
72395;BME280;60384;48.152;11.614;2023-03-14T10:34:12;93943.31;;;23.43;36.13
72395;BME280;60384;48.152;11.614;2023-03-14T10:37:21;93935.19;;;20.49;41.44
72395;BME280;60384;48.152;11.614;2023-03-14T10:40:26;93937.91;;;18.03;46.87
72395;BME280;60384;48.152;11.614;2023-03-14T10:43:33;93941.94;;;17.54;48.49
72395;BME280;60384;48.152;11.614;2023-03-14T10:46:36;93936.22;;;20.71;43.28
72395;BME280;60384;48.152;11.614;2023-03-14T10:50:23;93935.59;;;25.48;35.78
72395;BME280;60384;48.152;11.614;2023-03-14T10:53:25;93955.72;;;20.30;44.25
72395;BME280;60384;48.152;11.614;2023-03-14T10:56:34;93966.16;;;17.99;49.01
72395;BME280;60384;48.152;11.614;2023-03-14T10:59:39;93956.16;;;16.80;51.50
72395;BME280;60384;48.152;11.614;2023-03-14T11:02:51;93967.78;;;16.04;52.95
72395;BME280;60384;48.152;11.614;2023-03-14T11:05:57;93957.94;;;15.62;53.41
72395;BME280;60384;48.152;11.614;2023-03-14T11:09:03;93961.44;;;15.34;54.04
72395;BME280;60384;48.152;11.614;2023-03-14T11:12:22;93968.03;;;15.08;54.20
72395;BME280;60384;48.152;11.614;2023-03-14T11:15:33;93956.91;;;14.85;53.77
72395;BME280;60384;48.152;11.614;2023-03-14T11:18:48;93958.06;;;14.70;54.71
72395;BME280;60384;48.152;11.614;2023-03-14T11:21:55;93960.75;;;14.63;54.31
72395;BME280;60384;48.152;11.614;2023-03-14T11:25:16;93955.38;;;14.63;54.17
72395;BME280;60384;48.152;11.614;2023-03-14T11:28:23;93957.31;;;14.80;54.25
72395;BME280;60384;48.152;11.614;2023-03-14T11:31:31;93966.88;;;14.95;53.27
72395;BME280;60384;48.152;11.614;2023-03-14T11:34:41;93960.13;;;15.92;51.73
72395;BME280;60384;48.152;11.614;2023-03-14T11:37:48;93935.34;;;17.21;49.51
72395;BME280;60384;48.152;11.614;2023-03-14T11:40:56;93936.50;;;17.92;48.28
72395;BME280;60384;48.152;11.614;2023-03-14T11:44:02;93941.56;;;17.15;50.04
72395;BME280;60384;48.152;11.614;2023-03-14T11:47:09;93953.94;;;16.64;51.23
72395;BME280;60384;48.152;11.614;2023-03-14T11:50:16;93937.63;;;16.27;51.79
72395;BME280;60384;48.152;11.614;2023-03-14T11:53:21;93939.38;;;15.89;52.56
72395;BME280;60384;48.152;11.614;2023-03-14T11:56:29;93927.91;;;15.67;52.52
72395;BME280;60384;48.152;11.614;2023-03-14T11:59:44;93948.41;;;15.29;53.44
72395;BME280;60384;48.152;11.614;2023-03-14T12:02:52;93935.38;;;15.03;54.16
72395;BME280;60384;48.152;11.614;2023-03-14T12:06:01;93928.09;;;14.89;53.90
72395;BME280;60384;48.152;11.614;2023-03-14T12:09:05;93906.97;;;14.87;54.12
72395;BME280;60384;48.152;11.614;2023-03-14T12:12:12;93918.13;;;14.89;53.50
72395;BME280;60384;48.152;11.614;2023-03-14T12:15:18;93928.47;;;14.87;53.77
72395;BME280;60384;48.152;11.614;2023-03-14T12:18:27;93923.50;;;14.86;53.56
72395;BME280;60384;48.152;11.614;2023-03-14T12:21:45;93967.28;;;14.76;53.80
72395;BME280;60384;48.152;11.614;2023-03-14T12:24:51;93918.91;;;14.69;54.17
72395;BME280;60384;48.152;11.614;2023-03-14T12:28:19;93932.34;;;14.69;53.34
72395;BME280;60384;48.152;11.614;2023-03-14T12:31:45;93925.44;;;14.68;53.66
72395;BME280;60384;48.152;11.614;2023-03-14T12:34:50;93923.50;;;14.75;53.63
72395;BME280;60384;48.152;11.614;2023-03-14T12:37:55;93929.66;;;14.72;53.18
72395;BME280;60384;48.152;11.614;2023-03-14T12:41:03;93926.59;;;14.63;53.47
72395;BME280;60384;48.152;11.614;2023-03-14T12:44:39;93925.44;;;14.68;53.84
72395;BME280;60384;48.152;11.614;2023-03-14T12:47:53;93922.34;;;14.98;52.51
72395;BME280;60384;48.152;11.614;2023-03-14T12:51:02;93933.03;;;15.26;52.00
72395;BME280;60384;48.152;11.614;2023-03-14T12:54:21;93941.31;;;15.88;50.75
72395;BME280;60384;48.152;11.614;2023-03-14T12:57:27;93933.63;;;16.49;49.74
72395;BME280;60384;48.152;11.614;2023-03-14T13:00:31;93952.06;;;16.61;49.82
72395;BME280;60384;48.152;11.614;2023-03-14T13:03:40;93930.59;;;16.43;50.21
72395;BME280;60384;48.152;11.614;2023-03-14T13:06:49;93953.59;;;15.93;51.00
72395;BME280;60384;48.152;11.614;2023-03-14T13:09:55;93937.97;;;15.59;52.06
72395;BME280;60384;48.152;11.614;2023-03-14T13:13:03;93949.16;;;15.29;52.02
72395;BME280;60384;48.152;11.614;2023-03-14T13:16:15;93956.47;;;15.36;52.18
72395;BME280;60384;48.152;11.614;2023-03-14T13:19:20;93956.84;;;15.35;51.94
72395;BME280;60384;48.152;11.614;2023-03-14T13:22:27;93964.53;;;15.36;51.51
72395;BME280;60384;48.152;11.614;2023-03-14T13:25:32;93960.69;;;15.37;51.57
72395;BME280;60384;48.152;11.614;2023-03-14T13:28:35;93952.97;;;15.39;51.48
72395;BME280;60384;48.152;11.614;2023-03-14T13:31:37;93952.97;;;15.32;51.93
72395;BME280;60384;48.152;11.614;2023-03-14T13:34:44;93983.78;;;15.10;51.88
72395;BME280;60384;48.152;11.614;2023-03-14T13:37:55;93999.16;;;14.81;52.35
72395;BME280;60384;48.152;11.614;2023-03-14T13:40:59;93996.44;;;14.56;52.39
72395;BME280;60384;48.152;11.614;2023-03-14T13:44:05;94016.38;;;14.41;52.63
72395;BME280;60384;48.152;11.614;2023-03-14T13:47:12;94023.97;;;14.25;53.08
72395;BME280;60384;48.152;11.614;2023-03-14T13:50:17;94030.09;;;14.15;53.12
72395;BME280;60384;48.152;11.614;2023-03-14T13:53:21;94028.91;;;14.05;53.32
72395;BME280;60384;48.152;11.614;2023-03-14T13:56:24;94059.16;;;13.91;53.31
72395;BME280;60384;48.152;11.614;2023-03-14T13:59:28;94043.00;;;13.77;53.77
72395;BME280;60384;48.152;11.614;2023-03-14T14:02:31;94062.88;;;13.69;53.38
72395;BME280;60384;48.152;11.614;2023-03-14T14:05:33;94065.38;;;13.41;53.76
72395;BME280;60384;48.152;11.614;2023-03-14T14:08:41;94078.59;;;13.16;54.08
72395;BME280;60384;48.152;11.614;2023-03-14T14:11:47;94082.22;;;12.94;54.16
72395;BME280;60384;48.152;11.614;2023-03-14T14:14:53;94086.59;;;12.68;54.17
72395;BME280;60384;48.152;11.614;2023-03-14T14:18:00;94100.47;;;12.40;55.07
72395;BME280;60384;48.152;11.614;2023-03-14T14:21:03;94116.25;;;12.19;55.35
72395;BME280;60384;48.152;11.614;2023-03-14T14:24:07;94120.66;;;12.01;55.45
72395;BME280;60384;48.152;11.614;2023-03-14T14:27:13;94118.88;;;11.82;55.43
72395;BME280;60384;48.152;11.614;2023-03-14T14:30:29;94154.56;;;11.67;55.56
72395;BME280;60384;48.152;11.614;2023-03-14T14:33:39;94157.72;;;11.50;55.79
72395;BME280;60384;48.152;11.614;2023-03-14T14:36:43;94163.91;;;11.31;54.87
72395;BME280;60384;48.152;11.614;2023-03-14T14:39:53;94164.69;;;11.09;56.35
72395;BME280;60384;48.152;11.614;2023-03-14T14:43:02;94192.72;;;10.96;55.63
72395;BME280;60384;48.152;11.614;2023-03-14T14:46:06;94195.00;;;10.74;56.31
72395;BME280;60384;48.152;11.614;2023-03-14T14:49:11;94207.66;;;10.58;56.23
72395;BME280;60384;48.152;11.614;2023-03-14T14:52:15;94200.63;;;10.50;56.59
72395;BME280;60384;48.152;11.614;2023-03-14T14:55:19;94190.94;;;10.42;56.39
72395;BME280;60384;48.152;11.614;2023-03-14T14:58:24;94227.44;;;10.38;56.87
72395;BME280;60384;48.152;11.614;2023-03-14T15:01:32;94226.88;;;10.29;56.79
72395;BME280;60384;48.152;11.614;2023-03-14T15:04:35;94234.41;;;10.23;56.68
72395;BME280;60384;48.152;11.614;2023-03-14T15:07:36;94218.72;;;10.22;56.26
72395;BME280;60384;48.152;11.614;2023-03-14T15:10:39;94255.66;;;10.20;56.39
72395;BME280;60384;48.152;11.614;2023-03-14T15:13:41;94238.19;;;10.22;56.80
72395;BME280;60384;48.152;11.614;2023-03-14T15:16:43;94234.81;;;10.25;56.61
72395;BME280;60384;48.152;11.614;2023-03-14T15:19:45;94251.59;;;10.26;56.27
72395;BME280;60384;48.152;11.614;2023-03-14T15:22:47;94244.72;;;10.25;56.50
72395;BME280;60384;48.152;11.614;2023-03-14T15:25:50;94266.47;;;10.27;56.69
72395;BME280;60384;48.152;11.614;2023-03-14T15:28:52;94271.75;;;10.23;56.47
72395;BME280;60384;48.152;11.614;2023-03-14T15:31:54;94296.69;;;10.15;57.08
72395;BME280;60384;48.152;11.614;2023-03-14T15:34:56;94314.88;;;10.10;56.77
72395;BME280;60384;48.152;11.614;2023-03-14T15:37:58;94321.16;;;10.02;57.09
72395;BME280;60384;48.152;11.614;2023-03-14T15:41:01;94340.97;;;9.85;57.00
72395;BME280;60384;48.152;11.614;2023-03-14T15:44:03;94367.44;;;9.62;57.53
72395;BME280;60384;48.152;11.614;2023-03-14T15:47:05;94354.22;;;9.38;57.87
72395;BME280;60384;48.152;11.614;2023-03-14T15:50:08;94374.81;;;9.25;57.96
72395;BME280;60384;48.152;11.614;2023-03-14T15:53:11;94363.44;;;9.12;57.79
72395;BME280;60384;48.152;11.614;2023-03-14T15:56:16;94370.00;;;9.03;58.23
72395;BME280;60384;48.152;11.614;2023-03-14T15:59:18;94375.66;;;9.01;57.92
72395;BME280;60384;48.152;11.614;2023-03-14T16:02:20;94382.47;;;8.99;58.10
72395;BME280;60384;48.152;11.614;2023-03-14T16:05:22;94394.56;;;8.96;57.75
72395;BME280;60384;48.152;11.614;2023-03-14T16:08:24;94412.00;;;8.94;58.30
72395;BME280;60384;48.152;11.614;2023-03-14T16:11:28;94409.34;;;8.94;58.06
72395;BME280;60384;48.152;11.614;2023-03-14T16:14:30;94409.66;;;8.92;57.77
72395;BME280;60384;48.152;11.614;2023-03-14T16:17:32;94416.88;;;8.92;57.97
72395;BME280;60384;48.152;11.614;2023-03-14T16:20:34;94428.31;;;8.92;57.77